Cazorla, Spain
Current Conditions -  °F | °C
As of 12:30 PM on Friday 19 Dec 2014 (Local Time) from LEGR Reporting Station
Clear Clear  
Wind Chill: 52°   Ceiling: Unl
Heat Index: 52°   Visibility: 6mi
Dew Point: 43°   Wind: 0mph
Humidity: 71%   Direction: NA
Pressure: 30.45"   Gusts: NA
Location:  37.91°N, 3°W
Report Text: LEGR 191130Z 00000KT CAVOK 11/06 Q1031
Loading
Personal Weather Stations






























Interactive Weather Map New forecast layout! Learn more

10-Day Weather Forecast

Advertisements
Track Severe Weather on mobile